Time;durP1;ratioP1;P1;durP2;ratioP2;P2;SDS_P1;SDS_P2;PMS_P1;PMS_P2;Temp;Humidity;BMP_temperature;BMP_pressure;BME280_temperature;BME280_humidity;BME280_pressure;Samples;Min_cycle;Max_cycle;Signal;HPM_P1;HPM_P2
2022/02/28 00:00:48;;;;;;;;;;;22.40;28.00;;;;;;5069901;28;19989;-70
2022/02/28 00:03:16;;;;;;;;;;;22.50;28.00;;;;;;5066961;28;20365;-70
2022/02/28 00:05:43;;;;;;;;;;;22.50;28.00;;;;;;5070292;28;19924;-70
2022/02/28 00:08:10;;;;;;;;;;;22.40;28.00;;;;;;5067183;28;19954;-71
2022/02/28 00:10:37;;;;;;;;;;;22.40;28.00;;;;;;5085442;28;19924;-71
2022/02/28 00:13:04;;;;;;;;;;;22.40;28.00;;;;;;5067969;28;20019;-70
2022/02/28 00:15:32;;;;;;;;;;;22.40;28.40;;;;;;5069696;28;20380;-70
2022/02/28 00:17:59;;;;;;;;;;;22.40;28.00;;;;;;5083066;28;19971;-70
2022/02/28 00:20:26;;;;;;;;;;;22.40;28.00;;;;;;5069450;28;19924;-71
2022/02/28 00:22:53;;;;;;;;;;;22.40;28.00;;;;;;5066778;28;20152;-70
2022/02/28 00:28:24;;;;;;;;;;;22.40;28.10;;;;;;5086602;28;20270;-71
2022/02/28 00:30:51;;;;;;;;;;;22.40;28.10;;;;;;5090456;28;19974;-70
2022/02/28 00:33:18;;;;;;;;;;;22.40;28.10;;;;;;5087259;28;19981;-70
2022/02/28 00:35:45;;;;;;;;;;;22.30;28.10;;;;;;5089907;28;19924;-71
2022/02/28 00:38:12;;;;;;;;;;;22.30;28.10;;;;;;5087437;28;20377;-70
2022/02/28 00:40:39;;;;;;;;;;;22.40;28.10;;;;;;5089842;28;19973;-71
2022/02/28 00:43:06;;;;;;;;;;;22.30;28.10;;;;;;5087715;28;20359;-70
2022/02/28 00:45:34;;;;;;;;;;;22.30;28.10;;;;;;5089625;28;19969;-71
2022/02/28 00:48:00;;;;;;;;;;;22.30;28.10;;;;;;5087326;28;19932;-70
2022/02/28 00:53:32;;;;;;;;;;;22.30;28.10;;;;;;5087098;28;19974;-71
2022/02/28 00:55:59;;;;;;;;;;;22.30;28.10;;;;;;5090354;28;19981;-70
2022/02/28 00:58:26;;;;;;;;;;;22.30;28.10;;;;;;5086682;28;19928;-72
2022/02/28 01:00:53;;;;;;;;;;;22.30;28.10;;;;;;5089926;28;19954;-71
2022/02/28 01:03:21;;;;;;;;;;;22.30;28.10;;;;;;5086649;28;19981;-70
2022/02/28 01:05:48;;;;;;;;;;;22.30;28.10;;;;;;5090012;28;19950;-70
2022/02/28 01:08:15;;;;;;;;;;;22.30;28.10;;;;;;5068785;28;19960;-71
2022/02/28 01:10:45;;;;;;;;;;;22.30;28.10;;;;;;5089706;28;19924;-70
2022/02/28 01:13:11;;;;;;;;;;;22.30;28.10;;;;;;5089971;28;19928;-70
2022/02/28 01:15:43;;;;;;;;;;;22.30;28.10;;;;;;5076010;28;20031;-71
2022/02/28 01:18:10;;;;;;;;;;;22.30;28.10;;;;;;5090672;28;19971;-71
2022/02/28 01:20:37;;;;;;;;;;;22.30;28.20;;;;;;5093366;28;19993;-71
2022/02/28 01:23:04;;;;;;;;;;;22.20;28.20;;;;;;5090384;28;19977;-71
2022/02/28 01:25:53;;;;;;;;;;;22.20;28.20;;;;;;5093314;28;19927;-71
2022/02/28 01:28:20;;;;;;;;;;;22.20;28.20;;;;;;5089544;28;19931;-71
2022/02/28 01:30:47;;;;;;;;;;;22.30;28.30;;;;;;5093191;28;19924;-71
2022/02/28 01:33:14;;;;;;;;;;;22.20;28.20;;;;;;5090318;28;19924;-70
2022/02/28 01:35:42;;;;;;;;;;;22.30;28.30;;;;;;5093155;28;19924;-71
2022/02/28 01:38:09;;;;;;;;;;;22.30;28.30;;;;;;5090203;28;19924;-70
2022/02/28 01:40:36;;;;;;;;;;;22.20;28.20;;;;;;5092784;28;19935;-71
2022/02/28 01:43:03;;;;;;;;;;;22.20;28.30;;;;;;5090650;28;19928;-71
2022/02/28 01:45:30;;;;;;;;;;;22.20;28.30;;;;;;5092508;28;20399;-71
2022/02/28 01:47:58;;;;;;;;;;;22.20;28.30;;;;;;5090691;28;19924;-71
2022/02/28 01:53:29;;;;;;;;;;;22.20;28.30;;;;;;5089496;28;20024;-71
2022/02/28 01:55:58;;;;;;;;;;;22.20;28.30;;;;;;5092938;28;19924;-70
2022/02/28 01:58:32;;;;;;;;;;;22.20;28.30;;;;;;5089722;28;19924;-71
2022/02/28 02:01:00;;;;;;;;;;;22.20;28.30;;;;;;5092895;28;20339;-71
2022/02/28 02:03:27;;;;;;;;;;;22.20;28.30;;;;;;5089658;28;19928;-71
2022/02/28 02:05:54;;;;;;;;;;;22.20;28.30;;;;;;5092725;28;19932;-71
2022/02/28 02:08:21;;;;;;;;;;;22.20;28.40;;;;;;5089506;28;19993;-71
2022/02/28 02:10:49;;;;;;;;;;;22.20;28.40;;;;;;5092620;28;19985;-71
2022/02/28 02:13:16;;;;;;;;;;;22.20;28.50;;;;;;5089761;28;19950;-71
2022/02/28 02:15:43;;;;;;;;;;;22.20;28.40;;;;;;5092561;28;20023;-71
2022/02/28 02:18:10;;;;;;;;;;;22.10;28.40;;;;;;5089641;28;20084;-71
2022/02/28 02:20:38;;;;;;;;;;;22.10;28.40;;;;;;5092592;28;19932;-71
2022/02/28 02:23:08;;;;;;;;;;;22.10;28.40;;;;;;5088828;28;20010;-71
2022/02/28 02:25:55;;;;;;;;;;;22.10;28.40;;;;;;5092038;28;20046;-71
2022/02/28 02:28:22;;;;;;;;;;;22.10;28.40;;;;;;5088978;28;19924;-71
2022/02/28 02:30:51;;;;;;;;;;;22.10;28.40;;;;;;5092172;28;20011;-71
2022/02/28 02:33:18;;;;;;;;;;;22.10;28.40;;;;;;5089092;28;20471;-71
2022/02/28 02:35:53;;;;;;;;;;;22.10;28.40;;;;;;5091897;28;20384;-71
2022/02/28 02:38:21;;;;;;;;;;;22.10;28.40;;;;;;5071309;28;20175;-71
2022/02/28 02:40:48;;;;;;;;;;;22.10;28.40;;;;;;5074132;28;19993;-71
2022/02/28 02:43:15;;;;;;;;;;;22.10;28.50;;;;;;5089040;28;19931;-71
2022/02/28 02:45:42;;;;;;;;;;;22.10;28.50;;;;;;5091951;28;19924;-71
2022/02/28 02:48:14;;;;;;;;;;;22.10;28.50;;;;;;5088506;28;19969;-71
2022/02/28 02:50:41;;;;;;;;;;;22.10;28.50;;;;;;5091896;28;19928;-71
2022/02/28 02:53:08;;;;;;;;;;;22.10;28.50;;;;;;5089078;28;19973;-71
2022/02/28 02:55:35;;;;;;;;;;;22.10;28.50;;;;;;5091731;28;20108;-71
2022/02/28 02:58:03;;;;;;;;;;;22.10;28.50;;;;;;5070621;28;19924;-71
2022/02/28 03:00:30;;;;;;;;;;;22.00;28.40;;;;;;5090896;28;19924;-71
2022/02/28 03:02:57;;;;;;;;;;;22.10;28.50;;;;;;5088684;28;19924;-71
2022/02/28 03:05:24;;;;;;;;;;;22.00;28.40;;;;;;5091078;28;20059;-71
2022/02/28 03:07:51;;;;;;;;;;;22.10;28.50;;;;;;5088663;28;20353;-70
2022/02/28 03:13:24;;;;;;;;;;;22.00;28.50;;;;;;5088332;28;19985;-71
2022/02/28 03:15:52;;;;;;;;;;;22.00;28.50;;;;;;5091429;28;19969;-71
2022/02/28 03:18:19;;;;;;;;;;;22.00;28.90;;;;;;5088355;28;19934;-71
2022/02/28 03:20:46;;;;;;;;;;;22.00;28.50;;;;;;5090999;28;19924;-71
2022/02/28 03:23:13;;;;;;;;;;;22.00;28.50;;;;;;5087740;28;19977;-71
2022/02/28 03:25:40;;;;;;;;;;;22.00;28.50;;;;;;5091219;28;20005;-71
2022/02/28 03:28:07;;;;;;;;;;;22.00;28.50;;;;;;5088113;28;19932;-71
2022/02/28 03:30:34;;;;;;;;;;;22.00;28.50;;;;;;5073099;28;19924;-71
2022/02/28 03:33:01;;;;;;;;;;;22.10;28.60;;;;;;5088704;28;20234;-71
2022/02/28 03:38:33;;;;;;;;;;;22.00;28.50;;;;;;5087964;28;19970;-71
2022/02/28 03:41:00;;;;;;;;;;;22.00;29.00;;;;;;5090678;28;19977;-72
2022/02/28 03:43:30;;;;;;;;;;;22.10;28.60;;;;;;5088141;28;19924;-71
2022/02/28 03:45:57;;;;;;;;;;;22.00;28.50;;;;;;5090568;28;19986;-71
2022/02/28 03:48:24;;;;;;;;;;;22.00;28.50;;;;;;5090865;28;20366;-71
2022/02/28 03:50:51;;;;;;;;;;;22.00;28.50;;;;;;5090977;28;19927;-71
2022/02/28 03:53:18;;;;;;;;;;;22.00;28.50;;;;;;5087527;28;19924;-71
2022/02/28 03:55:45;;;;;;;;;;;22.00;28.60;;;;;;5072654;28;19924;-71
2022/02/28 03:58:12;;;;;;;;;;;22.00;28.50;;;;;;5087542;28;20372;-71
2022/02/28 04:00:54;;;;;;;;;;;22.00;28.60;;;;;;5072546;28;19931;-71
2022/02/28 04:03:24;;;;;;;;;;;22.00;28.60;;;;;;5087519;28;19924;-71
2022/02/28 04:05:51;;;;;;;;;;;22.00;28.60;;;;;;5090735;28;19935;-71
2022/02/28 04:08:18;;;;;;;;;;;22.00;28.60;;;;;;5069721;28;19976;-71
2022/02/28 04:10:45;;;;;;;;;;;22.00;28.60;;;;;;5089906;28;20084;-71
2022/02/28 04:13:12;;;;;;;;;;;22.00;28.60;;;;;;5087672;28;19931;-72
2022/02/28 04:15:39;;;;;;;;;;;21.90;28.60;;;;;;5090356;28;19924;-71
2022/02/28 04:18:06;;;;;;;;;;;22.00;28.60;;;;;;5087358;28;19928;-71
2022/02/28 04:20:33;;;;;;;;;;;22.00;28.60;;;;;;5090105;28;19971;-71
2022/02/28 04:23:03;;;;;;;;;;;22.00;28.60;;;;;;5087409;28;19978;-71
2022/02/28 04:25:54;;;;;;;;;;;22.00;29.10;;;;;;5089733;28;20389;-71
2022/02/28 04:28:21;;;;;;;;;;;21.90;28.60;;;;;;5086948;28;20284;-71
2022/02/28 04:30:48;;;;;;;;;;;22.00;28.60;;;;;;5090260;28;19928;-71
2022/02/28 04:33:15;;;;;;;;;;;21.90;28.60;;;;;;5087235;28;19989;-71
2022/02/28 04:35:42;;;;;;;;;;;21.90;28.60;;;;;;5089604;28;19950;-71
2022/02/28 04:38:10;;;;;;;;;;;21.90;28.60;;;;;;5090196;28;19928;-71
2022/02/28 04:40:37;;;;;;;;;;;21.90;28.60;;;;;;5089801;28;20373;-71
2022/02/28 04:43:04;;;;;;;;;;;21.90;28.60;;;;;;5086945;28;19978;-71
2022/02/28 04:45:31;;;;;;;;;;;21.90;28.60;;;;;;5089869;28;19928;-71
2022/02/28 04:47:58;;;;;;;;;;;21.90;28.60;;;;;;5083592;28;20035;-71
2022/02/28 04:53:29;;;;;;;;;;;21.90;28.60;;;;;;5086460;28;20335;-71
2022/02/28 04:55:58;;;;;;;;;;;21.90;28.60;;;;;;5094268;28;19924;-71
2022/02/28 04:58:25;;;;;;;;;;;21.90;28.60;;;;;;5088824;28;20487;-71
2022/02/28 05:00:52;;;;;;;;;;;21.90;28.60;;;;;;5092784;28;20014;-71
2022/02/28 05:03:20;;;;;;;;;;;21.90;28.60;;;;;;5091034;28;19928;-70
2022/02/28 05:05:47;;;;;;;;;;;21.90;28.70;;;;;;5093675;28;19928;-70
2022/02/28 05:08:14;;;;;;;;;;;21.90;28.60;;;;;;5090620;28;20454;-70
2022/02/28 05:10:41;;;;;;;;;;;21.90;28.70;;;;;;5093435;28;19974;-71
2022/02/28 05:13:08;;;;;;;;;;;21.90;28.70;;;;;;5090913;28;20024;-71
2022/02/28 05:18:23;;;;;;;;;;;21.90;28.70;;;;;;5090244;28;19928;-70
2022/02/28 05:20:51;;;;;;;;;;;21.90;28.70;;;;;;5093785;28;19928;-71
2022/02/28 05:23:18;;;;;;;;;;;21.90;28.70;;;;;;5090189;28;19932;-71
2022/02/28 05:25:45;;;;;;;;;;;21.90;28.70;;;;;;5093388;28;20022;-71
2022/02/28 05:28:32;;;;;;;;;;;22.00;28.70;;;;;;5089855;28;20380;-71
2022/02/28 05:31:02;;;;;;;;;;;21.90;28.70;;;;;;5093741;28;20286;-71
2022/02/28 05:33:29;;;;;;;;;;;22.00;28.70;;;;;;5090625;28;20416;-71
2022/02/28 05:35:56;;;;;;;;;;;21.90;28.70;;;;;;5093588;28;19950;-71
2022/02/28 05:38:23;;;;;;;;;;;21.90;28.70;;;;;;5088133;28;19932;-72
2022/02/28 05:40:50;;;;;;;;;;;21.90;28.70;;;;;;5092129;28;19924;-71
2022/02/28 05:43:17;;;;;;;;;;;21.90;28.70;;;;;;5087634;28;19924;-72
2022/02/28 05:45:44;;;;;;;;;;;21.90;28.70;;;;;;5073642;28;19989;-71
2022/02/28 05:48:11;;;;;;;;;;;21.90;28.70;;;;;;5083479;28;19928;-71
2022/02/28 05:50:38;;;;;;;;;;;21.90;28.70;;;;;;5089919;28;19924;-71
2022/02/28 05:53:05;;;;;;;;;;;21.90;28.70;;;;;;5090915;28;19950;-71
2022/02/28 05:55:34;;;;;;;;;;;21.90;28.70;;;;;;5109848;28;19962;-71
2022/02/28 05:58:01;;;;;;;;;;;21.90;28.70;;;;;;5111862;28;20375;-71
2022/02/28 06:00:29;;;;;;;;;;;21.90;28.70;;;;;;5091959;28;19950;-72
2022/02/28 06:02:56;;;;;;;;;;;21.90;28.70;;;;;;5091242;28;20038;-71
2022/02/28 06:05:23;;;;;;;;;;;21.90;28.70;;;;;;5109791;28;19928;-71
2022/02/28 06:07:50;;;;;;;;;;;21.90;28.70;;;;;;5094967;28;19974;-70
2022/02/28 06:13:21;;;;;;;;;;;21.90;28.50;;;;;;5088494;28;19954;-71
2022/02/28 06:15:48;;;;;;;;;;;21.90;28.50;;;;;;5074202;28;19950;-72
2022/02/28 06:18:16;;;;;;;;;;;21.80;28.50;;;;;;5092440;28;20357;-76
2022/02/28 06:20:43;;;;;;;;;;;21.80;28.50;;;;;;5092028;28;19996;-71
2022/02/28 06:23:14;;;;;;;;;;;21.80;28.40;;;;;;5087769;28;20353;-74
2022/02/28 06:25:42;;;;;;;;;;;21.90;28.40;;;;;;5092011;28;19979;-72
2022/02/28 06:28:09;;;;;;;;;;;21.90;28.40;;;;;;5091368;28;20340;-68
2022/02/28 06:30:40;;;;;;;;;;;21.90;28.30;;;;;;5087497;28;19994;-72
2022/02/28 06:33:07;;;;;;;;;;;21.90;28.70;;;;;;5088473;28;19923;-68
2022/02/28 06:35:34;;;;;;;;;;;22.00;28.50;;;;;;5088186;28;19950;-70
2022/02/28 06:38:02;;;;;;;;;;;22.00;29.20;;;;;;5088796;28;19924;-72
2022/02/28 06:40:29;;;;;;;;;;;22.00;28.70;;;;;;5086548;28;20439;-69
2022/02/28 06:42:56;;;;;;;;;;;22.10;28.60;;;;;;5082808;28;19936;-68
2022/02/28 06:45:25;;;;;;;;;;;22.10;28.30;;;;;;5102859;28;19992;-63
2022/02/28 06:47:52;;;;;;;;;;;22.10;28.20;;;;;;5109144;28;19928;-68
2022/02/28 06:50:19;;;;;;;;;;;22.20;28.60;;;;;;5110609;28;19981;-67
2022/02/28 06:52:46;;;;;;;;;;;22.30;29.00;;;;;;5098896;28;19924;-68
2022/02/28 06:55:13;;;;;;;;;;;22.30;29.20;;;;;;5087651;28;19924;-68
2022/02/28 06:57:40;;;;;;;;;;;22.40;29.10;;;;;;5089271;28;20377;-70
2022/02/28 07:00:07;;;;;;;;;;;22.50;28.70;;;;;;5106472;28;20321;-65
2022/02/28 07:02:34;;;;;;;;;;;22.50;28.80;;;;;;5089233;28;20368;-69
2022/02/28 07:05:02;;;;;;;;;;;22.60;28.50;;;;;;5085593;28;19928;-70
2022/02/28 07:07:29;;;;;;;;;;;22.70;28.40;;;;;;5088440;28;19975;-73
2022/02/28 07:09:56;;;;;;;;;;;22.70;28.60;;;;;;5089150;28;19924;-68
2022/02/28 07:12:23;;;;;;;;;;;22.80;28.80;;;;;;5067022;28;19928;-70
2022/02/28 07:14:50;;;;;;;;;;;22.90;29.10;;;;;;5084348;28;20293;-71
2022/02/28 07:17:17;;;;;;;;;;;22.90;28.80;;;;;;5089106;28;19978;-64
2022/02/28 07:19:44;;;;;;;;;;;23.00;28.80;;;;;;5071536;28;19993;-63
2022/02/28 07:22:11;;;;;;;;;;;23.00;28.80;;;;;;5089679;28;20340;-63
2022/02/28 07:24:38;;;;;;;;;;;23.10;28.80;;;;;;5089213;28;19939;-64
2022/02/28 07:27:05;;;;;;;;;;;23.20;29.00;;;;;;5068567;28;19963;-63
2022/02/28 07:29:32;;;;;;;;;;;23.20;28.80;;;;;;5083970;28;19924;-66
2022/02/28 07:31:59;;;;;;;;;;;23.20;28.50;;;;;;5086243;28;19939;-65
2022/02/28 07:34:26;;;;;;;;;;;23.30;28.50;;;;;;5090555;28;20331;-65
2022/02/28 07:36:54;;;;;;;;;;;23.30;28.40;;;;;;5082794;28;19982;-64
2022/02/28 07:39:21;;;;;;;;;;;23.40;28.10;;;;;;5085513;28;19931;-64
2022/02/28 07:41:48;;;;;;;;;;;23.40;27.80;;;;;;5070523;28;19977;-64
2022/02/28 07:44:15;;;;;;;;;;;23.50;27.80;;;;;;5083530;28;20436;-64
2022/02/28 07:46:42;;;;;;;;;;;23.50;27.70;;;;;;5082791;28;19954;-64
2022/02/28 07:53:18;;;;;;;;;;;23.50;27.60;;;;;;5088539;28;19919;-73
2022/02/28 07:55:45;;;;;;;;;;;23.60;27.60;;;;;;5089706;28;20285;-73
2022/02/28 07:58:12;;;;;;;;;;;23.60;27.60;;;;;;5083404;28;20318;-67
2022/02/28 08:00:39;;;;;;;;;;;23.60;27.60;;;;;;5069220;28;19977;-68
2022/02/28 08:03:06;;;;;;;;;;;23.70;27.60;;;;;;5089162;28;20010;-67
2022/02/28 08:05:33;;;;;;;;;;;23.70;27.60;;;;;;5089596;28;19931;-69
2022/02/28 08:08:00;;;;;;;;;;;23.80;27.60;;;;;;5081917;28;22068;-68
2022/02/28 08:10:27;;;;;;;;;;;23.80;27.60;;;;;;5087458;28;19925;-68
2022/02/28 08:12:56;;;;;;;;;;;23.80;27.50;;;;;;5089799;28;19978;-68
2022/02/28 08:15:23;;;;;;;;;;;23.90;27.50;;;;;;5086628;28;20008;-68
2022/02/28 08:17:50;;;;;;;;;;;23.90;27.40;;;;;;5081020;28;20396;-63
2022/02/28 08:20:17;;;;;;;;;;;24.00;27.40;;;;;;5085351;28;19925;-65
2022/02/28 08:22:44;;;;;;;;;;;24.00;27.30;;;;;;5088488;28;19978;-63
2022/02/28 08:25:15;;;;;;;;;;;24.10;27.30;;;;;;5085075;28;20553;-62
2022/02/28 08:27:42;;;;;;;;;;;24.10;27.30;;;;;;5079885;28;19948;-63
2022/02/28 08:30:12;;;;;;;;;;;24.20;27.40;;;;;;5085189;28;19969;-63
2022/02/28 08:32:39;;;;;;;;;;;24.30;27.50;;;;;;5089558;28;19923;-65
2022/02/28 08:35:06;;;;;;;;;;;24.30;27.50;;;;;;5070628;28;19960;-64
2022/02/28 08:37:33;;;;;;;;;;;24.30;27.60;;;;;;5087033;28;19928;-69
2022/02/28 08:40:01;;;;;;;;;;;24.40;27.60;;;;;;5085325;28;19928;-69
2022/02/28 08:42:27;;;;;;;;;;;24.40;27.60;;;;;;5088985;28;20080;-68
2022/02/28 08:44:55;;;;;;;;;;;24.40;27.50;;;;;;5087472;28;19931;-65
2022/02/28 08:47:22;;;;;;;;;;;24.50;27.50;;;;;;5088923;28;19928;-66
2022/02/28 08:49:49;;;;;;;;;;;24.50;27.40;;;;;;5086768;28;20411;-70
2022/02/28 08:52:16;;;;;;;;;;;24.60;27.30;;;;;;5089057;28;19932;-63
2022/02/28 08:54:43;;;;;;;;;;;24.60;27.30;;;;;;5087727;28;19928;-72
2022/02/28 08:57:14;;;;;;;;;;;24.70;27.20;;;;;;5089071;28;20624;-69
2022/02/28 08:59:41;;;;;;;;;;;24.70;27.30;;;;;;5083726;28;19970;-68
2022/02/28 09:02:08;;;;;;;;;;;24.70;28.50;;;;;;5071712;28;19992;-63
2022/02/28 09:04:35;;;;;;;;;;;24.70;29.20;;;;;;5088057;28;20005;-64
2022/02/28 09:07:03;;;;;;;;;;;24.70;28.90;;;;;;5088587;28;19974;-61
2022/02/28 09:09:30;;;;;;;;;;;24.70;29.10;;;;;;5076318;28;19924;-61
2022/02/28 09:11:57;;;;;;;;;;;24.70;29.40;;;;;;5068276;28;20004;-61
2022/02/28 09:14:24;;;;;;;;;;;24.70;29.10;;;;;;5067578;28;19931;-61
2022/02/28 09:16:51;;;;;;;;;;;24.70;29.00;;;;;;5069262;28;19924;-61
2022/02/28 09:19:18;;;;;;;;;;;24.70;28.90;;;;;;5070511;28;19932;-63
2022/02/28 09:21:45;;;;;;;;;;;24.70;29.00;;;;;;5076107;28;20362;-63
2022/02/28 09:24:12;;;;;;;;;;;24.70;28.80;;;;;;5058652;28;19931;-65
2022/02/28 09:26:40;;;;;;;;;;;24.70;28.90;;;;;;5072173;28;19967;-65
2022/02/28 09:39:32;;;;;;;;;;;24.80;28.60;;;;;;5073848;28;19931;-60
2022/02/28 09:41:59;;;;;;;;;;;24.80;28.60;;;;;;5081864;28;19924;-62
2022/02/28 09:44:28;;;;;;;;;;;24.80;28.60;;;;;;5087139;28;19935;-62
2022/02/28 09:46:56;;;;;;;;;;;24.80;28.60;;;;;;5079787;28;20015;-61
2022/02/28 09:49:23;;;;;;;;;;;24.90;28.70;;;;;;5082202;28;19935;-62
2022/02/28 09:51:50;;;;;;;;;;;24.90;28.60;;;;;;5083484;28;20016;-64
2022/02/28 09:54:17;;;;;;;;;;;24.90;28.50;;;;;;5098657;28;19924;-65
2022/02/28 09:56:44;;;;;;;;;;;24.90;28.40;;;;;;5081697;28;19931;-63
2022/02/28 09:59:11;;;;;;;;;;;25.00;28.40;;;;;;5085387;28;19924;-62
2022/02/28 10:01:57;;;;;;;;;;;25.00;28.70;;;;;;5085376;28;20018;-64
2022/02/28 10:04:26;;;;;;;;;;;25.00;28.50;;;;;;5102408;28;20473;-63
2022/02/28 10:06:53;;;;;;;;;;;25.10;28.40;;;;;;5086992;28;20509;-64
2022/02/28 10:09:21;;;;;;;;;;;25.10;28.30;;;;;;5085140;28;20284;-62
2022/02/28 10:11:49;;;;;;;;;;;25.20;28.40;;;;;;5081880;28;19928;-61
2022/02/28 10:17:25;;;;;;;;;;;25.20;28.10;;;;;;5085737;28;20319;-60
2022/02/28 10:19:57;;;;;;;;;;;25.30;27.90;;;;;;5077342;28;19971;-62
2022/02/28 10:22:24;;;;;;;;;;;25.40;28.00;;;;;;5083017;28;19971;-61
2022/02/28 10:24:53;;;;;;;;;;;25.50;28.20;;;;;;5087398;28;19928;-64
2022/02/28 10:27:20;;;;;;;;;;;25.50;27.90;;;;;;5071677;28;19982;-65
2022/02/28 10:29:48;;;;;;;;;;;25.50;27.80;;;;;;5084291;28;19932;-65
2022/02/28 10:32:15;;;;;;;;;;;25.60;27.90;;;;;;5078474;28;19985;-63
2022/02/28 10:37:47;;;;;;;;;;;25.70;27.90;;;;;;5073355;28;19945;-70
2022/02/28 10:40:14;;;;;;;;;;;25.70;27.90;;;;;;5084864;28;19932;-64
2022/02/28 10:42:45;;;;;;;;;;;25.80;27.80;;;;;;5082077;28;19928;-63
2022/02/28 10:45:17;;;;;;;;;;;25.80;27.70;;;;;;5085719;28;19973;-64
2022/02/28 10:47:45;;;;;;;;;;;25.90;27.60;;;;;;5083660;28;19939;-63
2022/02/28 10:50:12;;;;;;;;;;;26.00;27.70;;;;;;5088667;28;20080;-63
2022/02/28 10:52:55;;;;;;;;;;;26.00;27.60;;;;;;5083012;28;19932;-62
2022/02/28 10:55:30;;;;;;;;;;;26.00;27.60;;;;;;5088932;28;19967;-64
2022/02/28 10:58:11;;;;;;;;;;;26.10;27.40;;;;;;5079304;28;19979;-67
2022/02/28 11:00:58;;;;;;;;;;;26.10;27.40;;;;;;5084570;28;19932;-66
2022/02/28 11:03:27;;;;;;;;;;;26.20;27.40;;;;;;5084474;28;20426;-67
2022/02/28 11:05:58;;;;;;;;;;;26.30;27.30;;;;;;5070027;28;20266;-67
2022/02/28 11:08:26;;;;;;;;;;;26.30;27.10;;;;;;5070808;28;19932;-67
2022/02/28 11:10:55;;;;;;;;;;;26.30;27.00;;;;;;5088883;28;19928;-68
2022/02/28 11:13:22;;;;;;;;;;;26.40;27.00;;;;;;5061375;28;20014;-66
2022/02/28 11:15:51;;;;;;;;;;;26.50;27.00;;;;;;5089919;28;19996;-65
2022/02/28 11:18:20;;;;;;;;;;;26.50;26.90;;;;;;5091372;28;19973;-66
2022/02/28 11:20:48;;;;;;;;;;;26.50;26.80;;;;;;5091164;28;20300;-65
2022/02/28 11:23:19;;;;;;;;;;;26.60;26.80;;;;;;5082039;28;19931;-68
2022/02/28 11:25:47;;;;;;;;;;;26.60;26.60;;;;;;5089137;28;19924;-68
2022/02/28 11:28:14;;;;;;;;;;;26.70;26.60;;;;;;5090450;28;20029;-67
2022/02/28 11:30:41;;;;;;;;;;;26.70;26.60;;;;;;5091169;28;19963;-68
2022/02/28 11:33:12;;;;;;;;;;;26.80;26.60;;;;;;5069109;28;20392;-68
2022/02/28 11:35:43;;;;;;;;;;;26.90;26.50;;;;;;5091264;28;19924;-67
2022/02/28 11:38:30;;;;;;;;;;;26.90;26.50;;;;;;5090301;28;19935;-66
2022/02/28 11:41:04;;;;;;;;;;;27.00;26.50;;;;;;5075356;28;19924;-67
2022/02/28 11:43:36;;;;;;;;;;;27.00;26.40;;;;;;5066368;28;19985;-67
2022/02/28 11:46:14;;;;;;;;;;;27.00;26.40;;;;;;5090686;28;20372;-67
2022/02/28 11:48:47;;;;;;;;;;;27.10;26.40;;;;;;5089190;28;20014;-67
2022/02/28 11:51:26;;;;;;;;;;;27.10;26.30;;;;;;5089424;28;20331;-68
2022/02/28 11:53:55;;;;;;;;;;;27.10;26.30;;;;;;5065064;28;19951;-68
2022/02/28 11:56:41;;;;;;;;;;;27.10;26.20;;;;;;5068587;28;19924;-65
2022/02/28 11:59:23;;;;;;;;;;;27.10;26.20;;;;;;5054840;28;19925;-67
2022/02/28 12:01:53;;;;;;;;;;;27.20;26.30;;;;;;5069751;28;19932;-67
2022/02/28 12:04:29;;;;;;;;;;;27.20;26.50;;;;;;5081198;28;19924;-67
2022/02/28 12:07:06;;;;;;;;;;;27.20;26.50;;;;;;5089973;28;19928;-66
2022/02/28 12:09:37;;;;;;;;;;;27.20;26.50;;;;;;5090105;28;19994;-66
2022/02/28 12:12:22;;;;;;;;;;;27.20;26.50;;;;;;5089953;28;19976;-67
2022/02/28 12:15:08;;;;;;;;;;;27.20;26.40;;;;;;5099545;28;19931;-64
2022/02/28 12:17:51;;;;;;;;;;;27.30;26.40;;;;;;5078846;28;20288;-65
2022/02/28 12:20:20;;;;;;;;;;;27.20;26.40;;;;;;5109851;28;19949;-64
2022/02/28 12:23:08;;;;;;;;;;;27.30;26.60;;;;;;5109960;28;20314;-70
2022/02/28 12:25:55;;;;;;;;;;;27.20;26.60;;;;;;5075855;28;19935;-74
2022/02/28 12:28:30;;;;;;;;;;;27.20;27.10;;;;;;5102801;28;19931;-68
2022/02/28 12:31:02;;;;;;;;;;;27.20;26.40;;;;;;5089534;28;20266;-71
2022/02/28 12:33:49;;;;;;;;;;;27.20;26.30;;;;;;5088965;28;20011;-67
2022/02/28 12:36:17;;;;;;;;;;;27.10;26.40;;;;;;5082186;28;20374;-66
2022/02/28 12:38:49;;;;;;;;;;;27.10;26.40;;;;;;5069683;28;19925;-69
2022/02/28 12:41:19;;;;;;;;;;;27.10;26.50;;;;;;5069759;28;19924;-69
2022/02/28 12:43:46;;;;;;;;;;;27.20;26.30;;;;;;5070162;28;19936;-66
2022/02/28 12:46:19;;;;;;;;;;;27.10;26.40;;;;;;5065070;28;19972;-64
2022/02/28 12:48:47;;;;;;;;;;;27.10;26.50;;;;;;5082198;28;20430;-63
2022/02/28 12:51:20;;;;;;;;;;;27.20;26.40;;;;;;5096196;28;19932;-64
2022/02/28 12:53:47;;;;;;;;;;;27.20;26.50;;;;;;5077878;28;20348;-63
2022/02/28 12:56:22;;;;;;;;;;;27.20;26.30;;;;;;5082571;28;19932;-63
2022/02/28 12:58:51;;;;;;;;;;;27.20;26.20;;;;;;5081110;28;20274;-63
2022/02/28 13:01:20;;;;;;;;;;;27.20;26.30;;;;;;5080867;28;20369;-65
2022/02/28 13:03:52;;;;;;;;;;;27.20;26.20;;;;;;5080673;28;20278;-62
2022/02/28 13:06:21;;;;;;;;;;;27.20;26.00;;;;;;5082855;28;19982;-62
2022/02/28 13:09:01;;;;;;;;;;;27.20;25.90;;;;;;5081036;28;19928;-73
2022/02/28 13:11:28;;;;;;;;;;;27.20;26.30;;;;;;5072199;28;20274;-65
2022/02/28 13:17:27;;;;;;;;;;;27.20;26.00;;;;;;5093276;28;19919;-66
2022/02/28 13:19:56;;;;;;;;;;;27.10;26.30;;;;;;5093025;28;20022;-66
2022/02/28 13:22:24;;;;;;;;;;;27.10;25.90;;;;;;5092700;28;19924;-66
2022/02/28 13:24:51;;;;;;;;;;;27.10;25.90;;;;;;5093232;28;19977;-67
2022/02/28 13:27:18;;;;;;;;;;;27.10;25.90;;;;;;5093790;28;20281;-66
2022/02/28 13:29:45;;;;;;;;;;;27.00;25.90;;;;;;5102688;28;20263;-65
2022/02/28 13:32:18;;;;;;;;;;;27.00;25.80;;;;;;5112924;28;19924;-65
2022/02/28 13:34:46;;;;;;;;;;;27.00;26.00;;;;;;5113479;28;19979;-65
2022/02/28 13:37:17;;;;;;;;;;;27.00;26.20;;;;;;5114023;28;20042;-65
2022/02/28 13:39:44;;;;;;;;;;;26.90;26.00;;;;;;5090375;28;19928;-64
2022/02/28 13:42:23;;;;;;;;;;;27.00;26.20;;;;;;5093517;28;19931;-64
2022/02/28 13:44:51;;;;;;;;;;;27.00;26.10;;;;;;5093109;28;19924;-65
2022/02/28 13:47:21;;;;;;;;;;;27.00;26.10;;;;;;5092430;28;19924;-66
2022/02/28 13:49:50;;;;;;;;;;;27.00;26.00;;;;;;5088587;28;20285;-64
2022/02/28 13:52:25;;;;;;;;;;;27.00;25.80;;;;;;5092732;28;19924;-65
2022/02/28 13:54:57;;;;;;;;;;;27.00;26.10;;;;;;5092984;28;19924;-65
2022/02/28 13:57:25;;;;;;;;;;;27.00;26.00;;;;;;5074548;28;19931;-65
2022/02/28 14:00:12;;;;;;;;;;;27.00;26.10;;;;;;5092157;28;19924;-64
2022/02/28 14:02:53;;;;;;;;;;;27.00;26.10;;;;;;5092587;28;20300;-65
2022/02/28 14:05:27;;;;;;;;;;;27.00;26.10;;;;;;5092555;28;20027;-63
2022/02/28 14:07:55;;;;;;;;;;;27.00;26.40;;;;;;5090908;28;19989;-65
2022/02/28 14:10:26;;;;;;;;;;;27.00;26.50;;;;;;5091187;28;19932;-69
2022/02/28 14:12:54;;;;;;;;;;;27.00;26.30;;;;;;5091909;28;20431;-67
2022/02/28 14:15:22;;;;;;;;;;;26.90;26.20;;;;;;5090227;28;19928;-66
2022/02/28 14:17:56;;;;;;;;;;;26.90;26.50;;;;;;5091397;28;19924;-64
2022/02/28 14:20:23;;;;;;;;;;;26.90;26.20;;;;;;5090148;28;20353;-66
2022/02/28 14:23:04;;;;;;;;;;;26.90;26.10;;;;;;5091487;28;19924;-66
2022/02/28 14:25:31;;;;;;;;;;;26.90;26.30;;;;;;5092092;28;19924;-67
2022/02/28 14:28:00;;;;;;;;;;;26.80;26.40;;;;;;5092344;28;19924;-66
2022/02/28 14:30:27;;;;;;;;;;;26.80;26.50;;;;;;5106660;28;19925;-66
2022/02/28 14:33:03;;;;;;;;;;;26.80;26.80;;;;;;5112179;28;20334;-64
2022/02/28 14:35:30;;;;;;;;;;;26.70;26.80;;;;;;5112603;28;19931;-65
2022/02/28 14:37:59;;;;;;;;;;;26.70;26.80;;;;;;5112589;28;19977;-68
2022/02/28 14:40:28;;;;;;;;;;;26.70;26.80;;;;;;5112757;28;19923;-65
2022/02/28 14:42:56;;;;;;;;;;;26.70;26.90;;;;;;5112738;28;20466;-67
2022/02/28 14:45:23;;;;;;;;;;;26.70;26.90;;;;;;5112310;28;19924;-65
2022/02/28 14:47:50;;;;;;;;;;;26.60;27.00;;;;;;5094651;28;19923;-64
2022/02/28 14:50:17;;;;;;;;;;;26.60;27.00;;;;;;5095372;28;20393;-68
2022/02/28 14:52:50;;;;;;;;;;;26.60;26.90;;;;;;5086090;28;20415;-66
2022/02/28 14:55:19;;;;;;;;;;;26.60;27.10;;;;;;5085070;28;20292;-64
2022/02/28 14:57:47;;;;;;;;;;;26.50;27.00;;;;;;5087780;28;21821;-64
2022/02/28 15:00:16;;;;;;;;;;;26.50;27.10;;;;;;5080046;28;20305;-63
2022/02/28 15:02:43;;;;;;;;;;;26.50;27.10;;;;;;5085811;28;19924;-63
2022/02/28 15:05:10;;;;;;;;;;;26.50;27.10;;;;;;5085046;28;19928;-65
2022/02/28 15:07:37;;;;;;;;;;;26.50;26.90;;;;;;5088183;28;19927;-65
2022/02/28 15:10:05;;;;;;;;;;;26.50;26.80;;;;;;5084542;28;19924;-62
2022/02/28 15:12:32;;;;;;;;;;;26.50;26.90;;;;;;5065330;28;19975;-65
2022/02/28 15:14:59;;;;;;;;;;;26.40;26.90;;;;;;5087357;28;20664;-62